createdAt,value
2023-04-12T00:00:32.012Z,86.64
2023-04-12T00:03:58.330Z,86.37
2023-04-12T00:07:35.560Z,86.09
2023-04-12T00:11:13.542Z,86.12
2023-04-12T00:14:51.315Z,86.33
2023-04-12T00:18:28.674Z,86.20
2023-04-12T00:22:06.282Z,86.08
2023-04-12T00:25:44.883Z,86.10
2023-04-12T00:29:21.960Z,85.89
2023-04-12T00:32:59.809Z,86.06
2023-04-12T00:36:37.041Z,85.83
2023-04-12T00:40:14.594Z,85.78
2023-04-12T00:43:52.298Z,86.04
2023-04-12T00:47:31.127Z,86.64
2023-04-12T00:51:07.872Z,85.89
2023-04-12T00:54:45.762Z,86.38
2023-04-12T00:58:26.918Z,86.32
2023-04-12T01:02:01.326Z,86.28
2023-04-12T01:05:49.459Z,86.34
2023-04-12T01:09:31.538Z,86.09
2023-04-12T01:13:07.640Z,86.49
2023-04-12T01:16:53.854Z,86.41
2023-04-12T01:20:18.754Z,86.41
2023-04-12T01:24:03.718Z,86.65
2023-04-12T01:27:45.250Z,86.00
2023-04-12T01:31:08.951Z,86.06
2023-04-12T01:34:43.551Z,85.49
2023-04-12T01:38:21.696Z,85.77
2023-04-12T01:41:58.031Z,85.60
2023-04-12T01:45:36.543Z,85.75
2023-04-12T01:49:15.673Z,85.83
2023-04-12T01:53:29.674Z,86.00
2023-04-12T01:56:34.847Z,86.04
2023-04-12T02:00:10.972Z,85.83
2023-04-12T02:03:50.151Z,85.69
2023-04-12T02:07:24.013Z,85.90
2023-04-12T02:11:01.675Z,85.56
2023-04-12T02:14:39.352Z,85.72
2023-04-12T02:18:17.692Z,85.53
2023-04-12T02:21:54.318Z,85.69
2023-04-12T02:25:33.434Z,85.55
2023-04-12T02:29:10.577Z,85.34
2023-04-12T02:32:48.271Z,85.75
2023-04-12T02:36:26.153Z,85.37
2023-04-12T02:40:04.771Z,85.40
2023-04-12T02:43:40.649Z,85.57
2023-04-12T02:47:19.786Z,85.76
2023-04-12T02:50:55.851Z,85.65
2023-04-12T02:54:33.450Z,85.42
2023-04-12T02:58:11.334Z,85.79
2023-04-12T03:01:51.039Z,85.65
2023-04-12T03:05:27.491Z,85.68
2023-04-12T03:09:04.877Z,85.57
2023-04-12T03:12:42.012Z,85.71
2023-04-12T03:16:25.076Z,85.71
2023-04-12T03:19:58.378Z,85.79
2023-04-12T03:23:34.806Z,85.93
2023-04-12T03:27:12.470Z,85.93
2023-04-12T03:30:50.163Z,85.80
2023-04-12T03:34:32.411Z,85.66
2023-04-12T03:38:06.031Z,86.07
2023-04-12T03:41:43.383Z,85.67
2023-04-12T03:45:20.969Z,85.51
2023-04-12T03:48:58.880Z,85.26
2023-04-12T03:52:36.469Z,85.11
2023-04-12T03:56:14.275Z,85.01
2023-04-12T03:59:52.388Z,85.11
2023-04-12T04:03:29.897Z,84.77
2023-04-12T04:07:08.124Z,84.49
2023-04-12T04:10:45.010Z,84.63
2023-04-12T04:14:22.209Z,84.39
2023-04-12T04:18:00.195Z,84.36
2023-04-12T04:21:37.762Z,84.33
2023-04-12T04:25:15.950Z,83.72
2023-04-12T04:28:54.283Z,83.69
2023-04-12T04:32:31.848Z,83.86
2023-04-12T04:36:09.840Z,84.21
2023-04-12T04:39:46.372Z,84.23
2023-04-12T04:43:23.945Z,83.76
2023-04-12T04:47:01.885Z,83.73
2023-04-12T04:50:39.216Z,83.93
2023-04-12T04:54:17.046Z,83.61
2023-04-12T04:57:54.731Z,83.55
2023-04-12T05:01:36.707Z,83.71
2023-04-12T05:05:12.605Z,83.47
2023-04-12T05:08:47.278Z,83.23
2023-04-12T05:12:25.060Z,83.53
2023-04-12T05:16:08.099Z,83.02
2023-04-12T05:19:41.629Z,83.63
2023-04-12T05:23:18.196Z,83.70
2023-04-12T05:26:55.786Z,83.99
2023-04-12T05:30:33.342Z,84.35
2023-04-12T05:34:11.166Z,84.44
2023-04-12T05:37:49.247Z,84.37
2023-04-12T05:41:27.433Z,84.42
2023-04-12T05:45:07.543Z,84.70
2023-04-12T05:48:42.066Z,84.88
2023-04-12T05:52:19.466Z,85.26
2023-04-12T05:55:57.335Z,85.20
2023-04-12T05:59:34.710Z,85.04
2023-04-12T06:03:13.177Z,84.96
2023-04-12T06:06:50.396Z,84.92
2023-04-12T06:10:28.133Z,85.20
2023-04-12T06:14:06.284Z,85.19
2023-04-12T06:17:43.963Z,84.77
2023-04-12T06:21:21.038Z,85.41
2023-04-12T06:24:59.164Z,85.10
2023-04-12T06:28:36.534Z,84.82
2023-04-12T06:32:14.387Z,83.74
2023-04-12T06:35:52.324Z,83.63
2023-04-12T06:39:30.144Z,82.71
2023-04-12T06:43:07.078Z,82.02
2023-04-12T06:46:44.998Z,80.86
2023-04-12T06:50:22.264Z,80.20
2023-04-12T06:54:00.824Z,78.51
2023-04-12T06:57:37.865Z,76.68
2023-04-12T07:01:15.920Z,77.06
2023-04-12T07:04:54.785Z,76.91
2023-04-12T07:08:36.389Z,75.91
2023-04-12T07:12:08.477Z,76.86
2023-04-12T07:15:47.172Z,75.98
2023-04-12T07:19:24.156Z,74.17
2023-04-12T07:23:01.656Z,73.66
2023-04-12T07:26:39.409Z,72.32
2023-04-12T07:30:17.150Z,72.57
2023-04-12T07:33:54.710Z,72.41
2023-04-12T07:37:32.635Z,72.48
2023-04-12T07:41:10.073Z,72.56
2023-04-12T07:44:47.970Z,72.37
2023-04-12T07:48:25.444Z,73.48
2023-04-12T07:52:03.301Z,73.46
2023-04-12T07:55:41.081Z,73.02
2023-04-12T07:59:18.350Z,73.56
2023-04-12T08:02:57.321Z,73.20
2023-04-12T08:06:34.584Z,73.17
2023-04-12T08:10:11.510Z,72.37
2023-04-12T08:13:49.336Z,73.60
2023-04-12T08:17:28.807Z,73.17
2023-04-12T08:21:05.044Z,73.28
2023-04-12T08:24:41.953Z,73.41
2023-04-12T08:28:20.135Z,72.73
2023-04-12T08:32:01.094Z,73.64
2023-04-12T08:35:35.481Z,72.96
2023-04-12T08:39:12.790Z,73.26
2023-04-12T08:42:53.473Z,73.69
2023-04-12T08:46:30.374Z,73.47
2023-04-12T08:50:10.957Z,73.04
2023-04-12T08:53:45.937Z,73.54
2023-04-12T08:57:21.888Z,73.58
2023-04-12T09:01:00.759Z,74.08
2023-04-12T09:04:49.444Z,72.90
2023-04-12T09:08:14.461Z,73.39
2023-04-12T09:11:53.331Z,73.62
2023-04-12T09:15:31.077Z,72.96
2023-04-12T09:19:09.524Z,73.34
2023-04-12T09:35:35.950Z,70.11
2023-04-12T09:38:46.111Z,70.32
2023-04-12T09:42:32.537Z,70.88
2023-04-12T09:46:50.118Z,72.16
2023-04-12T09:50:42.110Z,71.39
2023-04-12T09:54:17.492Z,70.52
2023-04-12T09:57:55.385Z,70.37
2023-04-12T10:01:55.030Z,70.27
2023-04-12T10:05:17.352Z,70.26
2023-04-12T10:08:49.324Z,70.65
2023-04-12T10:12:24.681Z,71.33
2023-04-12T10:19:40.020Z,71.24
2023-04-12T10:23:12.876Z,70.49
2023-04-12T10:26:51.463Z,70.83
2023-04-12T10:30:31.644Z,71.00
2023-04-12T10:34:10.416Z,71.03
2023-04-12T10:38:05.630Z,70.78
2023-04-12T10:41:22.356Z,70.51
2023-04-12T10:45:26.753Z,70.18
2023-04-12T10:48:40.084Z,70.76
2023-04-12T10:52:16.030Z,70.10
2023-04-12T10:59:57.258Z,70.63
2023-04-12T11:03:45.854Z,70.20
2023-04-12T11:07:20.268Z,70.65
2023-04-12T11:14:52.220Z,70.55
2023-04-12T11:18:30.383Z,69.34
2023-04-12T11:22:11.386Z,69.27
2023-04-12T11:26:08.787Z,69.20
2023-04-12T11:29:36.799Z,69.22
2023-04-12T11:33:43.027Z,68.48
2023-04-12T11:37:03.510Z,68.77
2023-04-12T11:40:32.117Z,68.59
2023-04-12T11:48:03.170Z,69.37
2023-04-12T11:51:21.982Z,69.56
2023-04-12T11:54:59.523Z,69.55
2023-04-12T11:58:35.348Z,69.63
2023-04-12T12:06:01.323Z,70.14
2023-04-12T12:09:47.235Z,70.25
2023-04-12T12:13:17.234Z,70.43
2023-04-12T12:20:56.329Z,70.13
2023-04-12T12:24:28.864Z,69.94
2023-04-12T12:28:07.959Z,70.36
2023-04-12T12:31:29.621Z,69.79
2023-04-12T12:35:13.676Z,70.14
2023-04-12T12:38:54.461Z,70.14
2023-04-12T12:42:22.677Z,69.85
2023-04-12T12:46:00.939Z,70.31
2023-04-12T12:49:38.553Z,69.88
2023-04-12T12:53:15.197Z,70.56
2023-04-12T12:56:52.514Z,70.48
2023-04-12T13:00:56.360Z,71.66
2023-04-12T13:04:17.444Z,71.66
2023-04-12T13:07:55.314Z,72.58
2023-04-12T13:11:38.984Z,72.33
2023-04-12T13:15:22.262Z,72.71
2023-04-12T13:18:49.186Z,73.44
2023-04-12T13:22:27.896Z,73.65
2023-04-12T13:26:09.980Z,74.01
2023-04-12T13:29:38.905Z,74.97
2023-04-12T13:33:17.907Z,74.87
2023-04-12T13:37:13.396Z,74.33
2023-04-12T13:40:27.192Z,75.04
2023-04-12T13:44:04.761Z,75.95
2023-04-12T13:47:44.226Z,76.24
2023-04-12T13:51:21.666Z,77.30
2023-04-12T13:55:00.900Z,77.01
2023-04-12T13:58:41.519Z,76.35
2023-04-12T14:02:22.874Z,75.92
2023-04-12T14:10:52.519Z,75.96
2023-04-12T14:14:41.061Z,76.04
2023-04-12T14:18:11.951Z,75.96
2023-04-12T14:21:42.661Z,76.42
2023-04-12T14:25:20.304Z,76.03
2023-04-12T14:28:57.968Z,76.80
2023-04-12T14:32:35.873Z,76.78
2023-04-12T14:36:13.043Z,76.82
2023-04-12T14:40:09.850Z,77.42
2023-04-12T14:43:31.512Z,77.41
2023-04-12T14:47:23.357Z,77.32
2023-04-12T14:51:02.998Z,77.33
2023-04-12T14:54:33.622Z,77.62
2023-04-12T14:58:10.866Z,77.69
2023-04-12T15:01:48.976Z,77.82
2023-04-12T15:05:27.789Z,79.10
2023-04-12T15:09:17.912Z,79.52
2023-04-12T15:12:42.766Z,79.61
2023-04-12T15:16:20.109Z,78.44
2023-04-12T15:20:11.407Z,79.17
2023-04-12T15:23:35.847Z,80.08
2023-04-12T15:27:15.086Z,79.18
2023-04-12T15:30:53.064Z,78.77
2023-04-12T15:34:34.709Z,79.19
2023-04-12T15:38:23.668Z,79.78
2023-04-12T15:42:12.147Z,79.07
2023-04-12T15:45:55.684Z,80.14
2023-04-12T15:49:14.267Z,80.55
2023-04-12T15:52:44.615Z,80.33
2023-04-12T15:56:25.624Z,80.84
2023-04-12T16:00:00.054Z,80.27
2023-04-12T16:03:37.572Z,80.64
2023-04-12T16:07:33.085Z,81.16
2023-04-12T16:11:29.328Z,81.40
2023-04-12T16:14:57.934Z,81.76
2023-04-12T16:18:25.125Z,81.99
2023-04-12T16:22:12.895Z,81.83
2023-04-12T16:29:37.255Z,82.87
2023-04-12T16:33:28.902Z,82.78
2023-04-12T16:36:57.630Z,83.04
2023-04-12T16:40:39.208Z,83.27
2023-04-12T16:44:16.914Z,83.40
2023-04-12T16:48:09.354Z,82.84
2023-04-12T16:51:38.563Z,81.98
2023-04-12T16:55:50.609Z,82.26
2023-04-12T16:59:02.593Z,82.70
2023-04-12T17:02:37.440Z,82.89
2023-04-12T17:06:34.174Z,82.82
2023-04-12T17:09:55.387Z,82.84
2023-04-12T17:14:05.730Z,83.24
2023-04-12T17:18:06.552Z,83.43
2023-04-12T17:21:34.948Z,84.16
2023-04-12T17:25:26.964Z,83.88
2023-04-12T17:28:59.009Z,84.23
2023-04-12T17:32:50.581Z,84.13
2023-04-12T17:39:59.601Z,82.10
2023-04-12T17:43:27.153Z,83.22
2023-04-12T17:47:04.885Z,83.22
2023-04-12T17:54:21.009Z,82.74
2023-04-12T17:57:57.931Z,83.20
2023-04-12T18:01:36.886Z,83.28
2023-04-12T18:05:13.924Z,82.45
2023-04-12T18:08:51.018Z,82.41
2023-04-12T18:16:07.941Z,84.68
2023-04-12T18:20:03.277Z,85.72
2023-04-12T18:23:26.986Z,86.45
2023-04-12T18:26:59.654Z,86.44
2023-04-12T18:30:37.048Z,86.47
2023-04-12T18:34:31.283Z,85.69
2023-04-12T18:38:18.930Z,85.60
2023-04-12T18:42:23.164Z,85.45
2023-04-12T18:45:29.416Z,85.35
2023-04-12T18:49:06.581Z,85.30
2023-04-12T18:52:45.802Z,85.67
2023-04-12T18:56:24.647Z,85.71
2023-04-12T19:00:06.236Z,86.01
2023-04-12T19:03:37.526Z,86.77
2023-04-12T19:07:15.509Z,86.41
2023-04-12T19:10:52.711Z,85.59
2023-04-12T19:14:33.382Z,85.23
2023-04-12T19:18:40.592Z,85.54
2023-04-12T19:22:14.628Z,85.69
2023-04-12T19:25:45.532Z,86.42
2023-04-12T19:29:02.137Z,86.24
2023-04-12T19:33:06.638Z,86.28
2023-04-12T19:36:58.247Z,86.75
2023-04-12T19:40:45.063Z,87.00
2023-04-12T19:44:28.321Z,87.84
2023-04-12T19:51:52.825Z,87.81
2023-04-12T19:55:37.992Z,88.28
2023-04-12T19:59:02.942Z,88.34
2023-04-12T20:06:59.684Z,88.97
2023-04-12T20:10:45.802Z,89.43
2023-04-12T20:22:47.302Z,89.16
2023-04-12T20:27:03.796Z,89.02
2023-04-12T20:30:28.285Z,88.53
2023-04-12T20:34:07.511Z,88.41
2023-04-12T20:37:41.260Z,88.11
2023-04-12T20:41:20.133Z,88.60
2023-04-12T20:45:43.886Z,88.72
2023-04-12T20:49:25.461Z,88.74
2023-04-12T20:58:06.985Z,89.33
2023-04-12T21:01:32.098Z,89.87
2023-04-12T21:05:00.485Z,90.33
2023-04-12T21:12:11.630Z,91.16
2023-04-12T21:15:50.950Z,91.65
2023-04-12T21:23:38.906Z,92.28
2023-04-12T21:27:22.927Z,93.28
2023-04-12T21:31:03.256Z,93.47
2023-04-12T21:34:45.292Z,93.13
2023-04-12T21:38:12.032Z,93.63
2023-04-12T21:41:39.392Z,92.99
2023-04-12T21:48:50.549Z,92.90
2023-04-12T21:56:05.979Z,92.46
2023-04-12T21:59:46.465Z,92.38
2023-04-12T22:03:21.683Z,92.22
2023-04-12T22:06:58.964Z,92.01
2023-04-12T22:10:55.503Z,91.71
2023-04-12T22:14:15.713Z,92.09
2023-04-12T22:17:52.483Z,91.10
2023-04-12T22:21:31.246Z,90.44
2023-04-12T22:25:08.878Z,90.14
2023-04-12T22:28:45.059Z,90.28
2023-04-12T22:32:23.067Z,90.44
2023-04-12T22:36:10.252Z,90.15
2023-04-12T22:39:39.709Z,89.76
2023-04-12T22:43:19.849Z,90.28
2023-04-12T22:46:55.301Z,90.28
2023-04-12T22:50:31.501Z,90.25
2023-04-12T22:54:10.581Z,90.15
2023-04-12T22:57:47.154Z,89.97
2023-04-12T23:01:24.041Z,89.58
2023-04-12T23:05:03.073Z,89.59
2023-04-12T23:08:39.378Z,89.69
2023-04-12T23:12:17.071Z,88.63
2023-04-12T23:15:54.911Z,88.89
2023-04-12T23:19:33.763Z,89.23
2023-04-12T23:23:10.400Z,89.65
2023-04-12T23:27:07.458Z,89.61
2023-04-12T23:34:31.139Z,88.80
2023-04-12T23:38:12.895Z,88.86
2023-04-12T23:41:44.446Z,89.27
2023-04-12T23:45:33.074Z,89.33
2023-04-12T23:49:01.252Z,88.86
2023-04-12T23:52:48.984Z,89.52
